Flight Track Log - Related Links

Times and Time Zones

All times are in EDT time to prevent confusion due to time zone crossing. See the CES2048 flight status page for this flight to view local times or setup timezone preferences in your user account.

Time Position Orientation Groundspeed Altitude Reporting Facility
EDT Latitude Longitude Course Direction KTS MPH feet Rate Location/Type
04:40AM 25.1620 121.3341 51° Northeast 261 300 4,100  Level FlightAware ADS-B
04:40AM 25.1741 121.3506 51° Northeast 279 321 4,600 2,308 Climbing FlightAware ADS-B
04:40AM 25.1914 121.3737 51° Northeast 284 327 5,600 2,927 Climbing FlightAware ADS-B
04:40AM 25.2089 121.3972 51° Northeast 288 331 6,600 2,791 Climbing FlightAware ADS-B
04:41AM 25.2302 121.4254 50° Northeast 299 344 7,600 2,488 Climbing FlightAware ADS-B
04:41AM 25.2463 121.4421 35° Northeast 301 346 8,300 2,757 Climbing FlightAware ADS-B
04:41AM 25.2703 121.4586 31° Northeast 302 348 9,300 2,667 Climbing FlightAware ADS-B
04:42AM 25.2889 121.4709 31° Northeast 307 353 9,900 1,607 Climbing FlightAware ADS-B
04:42AM 25.3417 121.5061 31° Northeast 340 391 10,800 1,317 Climbing FlightAware ADS-B
04:45AM 25.4169 121.3935 306° West  Level Estimated
04:46AM 25.4529 121.3394 306° West  Level Estimated
04:47AM 25.4890 121.2853 306° West  Level Estimated
04:48AM 25.5250 121.2311 306° West  Level Estimated
04:49AM 25.5610 121.1769 306° West  Level Estimated
04:50AM 25.5969 121.1226 306° West  Level Estimated
04:51AM 25.6329 121.0684 306° West  Level Estimated
04:52AM 25.6688 121.0141 306° West  Level Estimated
04:53AM 25.7047 120.9597 306° West  Level Estimated
04:54AM 25.7406 120.9053 306° West  Level Estimated
04:55AM 25.7765 120.8510 306° West  Level Estimated
04:56AM 25.8123 120.7965 306° West  Level Estimated
04:57AM 25.8481 120.7420 306° West  Level Estimated
04:58AM 25.8839 120.6875 306° West  Level Estimated
04:59AM 25.9197 120.6330 306° West  Level Estimated
05:00AM 25.9555 120.5784 306° West  Level Estimated
05:01AM 25.9912 120.5238 306° West  Level Estimated
05:02AM 26.0270 120.4692 306° West  Level Estimated
05:03AM 26.0627 120.4145 306° West  Level Estimated
05:04AM 26.0983 120.3598 306° West  Level Estimated
05:05AM 26.1340 120.3051 306° West  Level Estimated
05:06AM 26.1696 120.2503 306° West  Level Estimated
05:07AM 26.2053 120.1955 306° West  Level Estimated
05:08AM 26.2409 120.1407 306° West  Level Estimated
05:09AM 26.2764 120.0858 306° West  Level Estimated
05:10AM 26.3120 120.0309 306° West  Level Estimated
05:11AM 26.3475 119.9760 306° West  Level Estimated
05:12AM 26.3831 119.9210 306° West  Level Estimated
05:13AM 26.4185 119.8660 306° West  Level Estimated
05:14AM 26.4540 119.8110 306° West  Level Estimated
05:15AM 26.4895 119.7559 306° West  Level Estimated
05:16AM 26.5249 119.7008 306° West  Level Estimated
05:17AM 26.5603 119.6456 306° West  Level Estimated
05:18AM 26.5957 119.5905 306° West  Level Estimated
05:19AM 26.6311 119.5353 306° West  Level Estimated
05:20AM 26.6664 119.4800 306° West  Level Estimated
05:21AM 26.7017 119.4247 306° West  Level Estimated
05:22AM 26.7370 119.3694 306° West  Level Estimated
05:23AM 26.7723 119.3141 306° West  Level Estimated
05:24AM 26.8076 119.2587 306° West  Level Estimated
05:25AM 26.8428 119.2033 305° West  Level Estimated
05:26AM 26.8780 119.1478 305° West  Level Estimated
05:27AM 26.9132 119.0924 305° West  Level Estimated
05:28AM 26.9484 119.0368 305° West  Level Estimated
05:29AM 26.9836 118.9813 305° West  Level Estimated
05:30AM 27.0187 118.9257 305° West  Level Estimated
05:31AM 27.0538 118.8701 305° West  Level Estimated
05:32AM 27.0889 118.8144 305° West  Level Estimated
05:33AM 27.1240 118.7587 305° West  Level Estimated
05:34AM 27.1590 118.7030 305° West  Level Estimated
05:35AM 27.1940 118.6472 305° West  Level Estimated
05:36AM 27.2290 118.5915 305° West  Level Estimated
05:37AM 27.2640 118.5356 305° West  Level Estimated
05:38AM 27.2990 118.4798 305° West  Level Estimated
05:39AM 27.3339 118.4238 305° West  Level Estimated
05:40AM 27.3688 118.3679 305° West  Level Estimated
05:41AM 27.4037 118.3119 305° West  Level Estimated
05:42AM 27.4386 118.2559 305° West  Level Estimated
05:43AM 27.4734 118.1999 305° West  Level Estimated
05:44AM 27.5082 118.1438 305° West  Level Estimated
05:45AM 27.5430 118.0877 305° West  Level Estimated
05:46AM 27.5778 118.0315 305° West  Level Estimated
05:47AM 27.6125 117.9754 305° West  Level Estimated
05:48AM 27.6473 117.9191 305° West  Level Estimated
05:49AM 27.6820 117.8629 305° West  Level Estimated
05:50AM 27.7167 117.8066 305° West  Level Estimated
05:51AM 27.7513 117.7503 305° West  Level Estimated
05:52AM 27.7860 117.6939 305° West  Level Estimated
05:53AM 27.8206 117.6375 305° West  Level Estimated
05:54AM 27.8552 117.5811 305° West  Level Estimated
05:55AM 27.8897 117.5246 305° West  Level Estimated
05:56AM 27.9243 117.4681 305° West  Level Estimated
05:57AM 27.9588 117.4115 305° West  Level Estimated
05:58AM 27.9933 117.3549 305° West  Level Estimated
05:59AM 28.0278 117.2983 305° West  Level Estimated
06:00AM 28.0623 117.2417 305° West  Level Estimated
06:01AM 28.0967 117.1850 305° West  Level Estimated
06:02AM 28.1311 117.1283 305° West  Level Estimated
06:03AM 28.1655 117.0715 305° West  Level Estimated
06:04AM 28.1998 117.0147 304° West  Level Estimated
06:05AM 28.2342 116.9579 304° West  Level Estimated
06:06AM 28.2685 116.9010 304° West  Level Estimated
06:07AM 28.3028 116.8441 304° West  Level Estimated
06:08AM 28.3370 116.7871 304° West  Level Estimated
06:09AM 28.3713 116.7302 304° West  Level Estimated
06:10AM 28.4055 116.6731 304° West  Level Estimated
06:11AM 28.4397 116.6161 304° West  Level Estimated
06:12AM 28.4739 116.5590 304° West  Level Estimated
06:13AM 28.5080 116.5019 304° West  Level Estimated
06:14AM 28.5422 116.4447 304° West  Level Estimated
06:15AM 28.5763 116.3875 304° West  Level Estimated
06:16AM 28.6103 116.3303 304° West  Level Estimated
06:17AM 28.6444 116.2730 304° West  Level Estimated
06:18AM 28.6784 116.2157 304° West  Level Estimated
06:19AM 28.7124 116.1583 304° West  Level Estimated
06:20AM 28.7464 116.1009 304° West  Level Estimated
06:21AM 28.7803 116.0435 304° West  Level Estimated
06:22AM 28.8143 115.9860 304° West  Level Estimated
06:23AM 28.8482 115.9285 304° West  Level Estimated
06:24AM 28.8650 115.9000 304° West  Level Estimated
06:25AM 28.8650 115.9000 North  Level Estimated
06:26AM 28.8650 115.9000 North  Level Estimated
06:27AM 28.8650 115.9000 North  Level Estimated
06:28AM 28.8650 115.9000 North  Level Estimated
06:29AM 28.8650 115.9000 North  Level Estimated
06:30AM 28.8650 115.9000 North  Level Estimated
06:31AM 28.8650 115.9000 North  Level Estimated
06:32AM 28.8650 115.9000 North  Level Estimated
06:33AM 28.8650 115.9000 North  Level Estimated
06:34AM 28.8650 115.9000 North  Level Estimated
06:35AM 28.8650 115.9000 North  Level Estimated
06:36AM 28.8650 115.9000 North  Level Estimated

Login

Don't have an account? Register now (free) for customized features, flight alerts, and more!